Time;durP1;ratioP1;P1;durP2;ratioP2;P2;SDS_P1;SDS_P2;PMS_P1;PMS_P2;Temp;Humidity;BMP_temperature;BMP_pressure;BME280_temperature;BME280_humidity;BME280_pressure;Samples;Min_cycle;Max_cycle;Signal;HPM_P1;HPM_P2
2023/12/03 00:00:32;;;;;;;45.78;17.75;;;0.80;99.90;;;;;;5044342;28;20043;-71
2023/12/03 00:02:57;;;;;;;46.53;16.42;;;0.90;99.90;;;;;;5022329;28;20077;-72
2023/12/03 00:05:23;;;;;;;35.97;15.15;;;0.80;99.90;;;;;;5047116;28;20139;-71
2023/12/03 00:07:50;;;;;;;39.97;15.73;;;0.80;99.90;;;;;;5046525;28;20095;-70
2023/12/03 00:10:16;;;;;;;37.95;16.67;;;0.80;99.90;;;;;;5026741;28;20073;-71
2023/12/03 00:12:42;;;;;;;35.15;15.15;;;0.80;99.90;;;;;;5044747;28;20049;-72
2023/12/03 00:15:08;;;;;;;38.92;15.30;;;0.90;99.90;;;;;;5031770;28;20056;-71
2023/12/03 00:17:34;;;;;;;48.83;20.00;;;0.90;99.90;;;;;;5023734;28;20041;-71
2023/12/03 00:19:59;;;;;;;45.33;16.08;;;0.90;99.90;;;;;;5031432;28;20044;-72
2023/12/03 00:22:25;;;;;;;37.70;16.55;;;0.90;99.90;;;;;;5034336;28;20045;-71
2023/12/03 00:24:51;;;;;;;36.75;15.38;;;0.90;99.90;;;;;;5023981;28;20091;-71
2023/12/03 00:27:16;;;;;;;36.28;16.27;;;0.90;99.90;;;;;;5031981;28;20075;-71
2023/12/03 00:29:42;;;;;;;35.92;15.48;;;0.90;99.90;;;;;;5032618;28;20192;-71
2023/12/03 00:32:08;;;;;;;35.53;15.57;;;0.80;99.90;;;;;;5044086;28;20537;-71
2023/12/03 00:34:33;;;;;;;39.35;17.33;;;0.80;99.90;;;;;;5035676;28;20430;-72
2023/12/03 00:36:59;;;;;;;38.85;15.57;;;0.70;99.90;;;;;;5029277;28;20041;-72
2023/12/03 00:39:24;;;;;;;31.95;13.50;;;0.70;99.90;;;;;;5025174;28;20537;-72
2023/12/03 00:41:53;;;;;;;39.67;16.85;;;0.60;99.90;;;;;;5030239;28;20411;-72
2023/12/03 00:44:18;;;;;;;49.38;21.83;;;0.60;99.90;;;;;;5038969;28;20042;-72
2023/12/03 00:46:45;;;;;;;36.15;15.45;;;0.60;99.90;;;;;;5035889;28;20040;-71
2023/12/03 00:49:11;;;;;;;40.00;18.30;;;0.50;99.90;;;;;;5033707;28;20455;-72
2023/12/03 00:51:36;;;;;;;40.25;18.08;;;0.50;99.90;;;;;;5031712;28;20052;-73
2023/12/03 00:54:02;;;;;;;36.45;15.80;;;0.50;99.90;;;;;;5017906;28;20128;-72
2023/12/03 00:56:27;;;;;;;34.38;14.93;;;0.50;99.90;;;;;;5040644;28;20042;-72
2023/12/03 00:58:53;;;;;;;34.25;14.05;;;0.50;99.90;;;;;;5037109;28;20127;-73
2023/12/03 01:01:22;;;;;;;34.10;14.75;;;0.50;99.90;;;;;;5045637;28;20048;-72
2023/12/03 01:03:47;;;;;;;30.65;14.55;;;0.50;99.90;;;;;;5011831;28;20033;-72
2023/12/03 01:06:13;;;;;;;36.30;14.77;;;0.60;99.90;;;;;;5020689;28;20330;-72
2023/12/03 01:08:38;;;;;;;30.13;12.98;;;0.60;99.90;;;;;;5036030;28;20045;-72
2023/12/03 01:11:05;;;;;;;30.30;14.55;;;0.70;99.90;;;;;;5030255;28;20037;-73
2023/12/03 01:13:31;;;;;;;36.95;14.35;;;0.70;99.90;;;;;;5038922;28;20091;-72
2023/12/03 01:15:56;;;;;;;31.67;15.75;;;0.80;99.90;;;;;;5024788;28;20144;-72
2023/12/03 01:18:22;;;;;;;31.88;14.45;;;0.80;99.90;;;;;;5034261;28;20421;-72
2023/12/03 01:20:48;;;;;;;42.20;15.20;;;0.80;99.90;;;;;;5034226;28;20033;-72
2023/12/03 01:23:13;;;;;;;35.58;14.85;;;0.70;99.90;;;;;;5035636;28;20116;-73
2023/12/03 01:25:39;;;;;;;36.60;15.23;;;0.70;99.90;;;;;;5032023;28;20045;-72
2023/12/03 01:28:05;;;;;;;35.80;15.27;;;0.70;99.90;;;;;;5048891;28;20037;-73
2023/12/03 01:30:30;;;;;;;30.63;13.52;;;0.70;99.90;;;;;;5018355;28;20049;-72
2023/12/03 01:32:56;;;;;;;32.42;14.52;;;0.70;99.90;;;;;;5025665;28;20056;-73
2023/12/03 01:35:21;;;;;;;34.33;13.75;;;0.80;99.90;;;;;;5029118;28;20071;-73
2023/12/03 01:37:47;;;;;;;29.90;13.50;;;0.80;99.90;;;;;;5038188;28;20120;-72
2023/12/03 01:40:13;;;;;;;29.05;14.65;;;0.80;99.90;;;;;;5029665;28;20032;-73
2023/12/03 01:42:38;;;;;;;33.90;14.65;;;0.80;99.90;;;;;;5038543;28;20349;-72
2023/12/03 01:45:05;;;;;;;38.88;16.08;;;0.80;99.90;;;;;;5029536;28;20080;-72
2023/12/03 01:47:31;;;;;;;30.63;14.77;;;0.80;99.90;;;;;;5028856;28;20041;-71
2023/12/03 01:50:12;;;;;;;30.20;14.90;;;0.80;99.90;;;;;;5028771;28;20052;-72
2023/12/03 01:52:38;;;;;;;33.28;15.25;;;0.80;99.90;;;;;;5034344;28;20045;-72
2023/12/03 01:55:06;;;;;;;33.08;15.45;;;0.90;99.90;;;;;;5041642;28;20052;-71
2023/12/03 01:57:32;;;;;;;24.17;12.00;;;0.90;99.90;;;;;;5026992;28;20033;-71
2023/12/03 01:59:57;;;;;;;29.52;13.63;;;0.90;99.90;;;;;;5024403;28;20102;-71
2023/12/03 02:02:23;;;;;;;33.90;13.88;;;0.90;99.90;;;;;;5014615;28;20069;-72
2023/12/03 02:04:49;;;;;;;34.65;14.95;;;0.90;99.90;;;;;;5027355;28;20034;-71
2023/12/03 02:07:14;;;;;;;27.52;12.48;;;0.90;99.90;;;;;;5042488;28;20033;-71
2023/12/03 02:09:41;;;;;;;29.75;12.40;;;0.90;99.90;;;;;;5026113;28;20036;-71
2023/12/03 02:12:07;;;;;;;27.90;12.95;;;0.90;99.90;;;;;;5036563;28;20043;-70
2023/12/03 02:14:33;;;;;;;30.45;13.77;;;1.00;99.90;;;;;;5034974;28;20038;-71
2023/12/03 02:16:59;;;;;;;33.13;13.05;;;0.90;99.90;;;;;;5041245;28;20101;-70
2023/12/03 02:19:24;;;;;;;26.40;12.57;;;1.00;99.90;;;;;;5039632;28;20087;-70
2023/12/03 02:21:50;;;;;;;37.67;12.60;;;1.00;99.90;;;;;;5029871;28;20121;-70
2023/12/03 02:24:16;;;;;;;42.20;12.05;;;1.00;99.90;;;;;;5038200;28;20041;-70
2023/12/03 02:26:41;;;;;;;31.10;11.98;;;1.00;99.90;;;;;;5039109;28;20090;-70
2023/12/03 02:29:07;;;;;;;32.05;12.23;;;1.00;99.90;;;;;;5042311;28;20057;-69
2023/12/03 02:31:32;;;;;;;36.33;12.00;;;1.00;99.90;;;;;;5023960;28;20041;-69
2023/12/03 02:34:05;;;;;;;25.13;12.65;;;1.00;99.90;;;;;;5036923;28;20044;-69
2023/12/03 02:36:31;;;;;;;36.63;11.23;;;1.00;99.90;;;;;;5033090;28;20110;-69
2023/12/03 02:38:57;;;;;;;59.85;13.63;;;1.00;99.90;;;;;;5030491;28;20476;-69
2023/12/03 02:41:22;;;;;;;38.42;11.93;;;1.00;99.90;;;;;;5037853;28;20120;-69
2023/12/03 02:43:48;;;;;;;30.92;11.23;;;1.10;99.90;;;;;;5037240;28;20046;-68
2023/12/03 02:46:13;;;;;;;29.77;11.38;;;1.00;99.90;;;;;;5011411;28;20499;-68
2023/12/03 02:48:39;;;;;;;32.22;12.50;;;1.00;99.90;;;;;;5031354;28;20212;-69
2023/12/03 02:51:05;;;;;;;27.95;11.52;;;1.00;99.90;;;;;;5032617;28;20043;-68
2023/12/03 02:53:31;;;;;;;38.58;11.88;;;1.00;99.90;;;;;;5015032;28;20073;-68
2023/12/03 02:55:58;;;;;;;22.98;10.02;;;1.00;99.90;;;;;;5010602;28;20083;-68
2023/12/03 02:58:24;;;;;;;34.58;12.52;;;1.00;99.90;;;;;;5034328;28;20030;-69
2023/12/03 03:00:49;;;;;;;41.03;12.13;;;1.00;99.90;;;;;;5011396;28;20203;-67
2023/12/03 03:03:15;;;;;;;37.15;10.80;;;1.00;99.90;;;;;;5028292;28;20037;-68
2023/12/03 03:05:41;;;;;;;44.47;12.10;;;1.00;99.90;;;;;;5027203;28;20472;-67
2023/12/03 03:08:06;;;;;;;64.43;14.05;;;1.00;99.90;;;;;;5029681;28;20466;-67
2023/12/03 03:10:32;;;;;;;140.63;20.15;;;1.00;99.90;;;;;;5040064;28;20041;-68
2023/12/03 03:12:58;;;;;;;53.80;13.05;;;1.00;99.90;;;;;;5032793;28;20178;-68
2023/12/03 03:15:23;;;;;;;105.57;17.48;;;1.00;99.90;;;;;;5046473;28;20051;-67
2023/12/03 03:17:49;;;;;;;58.20;13.18;;;1.00;99.90;;;;;;5034074;28;20108;-68
2023/12/03 03:20:17;;;;;;;73.43;13.93;;;1.00;99.90;;;;;;5036601;28;20041;-68
2023/12/03 03:22:42;;;;;;;56.25;13.80;;;1.00;99.90;;;;;;5042196;28;20033;-68
2023/12/03 03:25:09;;;;;;;53.60;13.10;;;0.90;99.90;;;;;;5045044;28;20519;-68
2023/12/03 03:27:34;;;;;;;70.05;15.95;;;1.00;99.90;;;;;;5030153;28;20037;-67
2023/12/03 03:30:00;;;;;;;47.05;13.30;;;0.90;99.90;;;;;;5037309;28;20073;-68
2023/12/03 03:32:26;;;;;;;35.00;11.95;;;1.00;99.90;;;;;;5023606;28;20049;-68
2023/12/03 03:34:51;;;;;;;41.42;12.70;;;0.90;99.90;;;;;;5025849;28;20072;-67
2023/12/03 03:37:17;;;;;;;121.75;21.33;;;1.00;99.90;;;;;;5034381;28;20120;-67
2023/12/03 03:39:42;;;;;;;33.85;12.50;;;0.90;99.90;;;;;;5036317;28;20174;-68
2023/12/03 03:42:08;;;;;;;126.90;21.08;;;1.00;99.90;;;;;;5019513;28;20033;-68
2023/12/03 03:44:34;;;;;;;121.35;19.15;;;0.90;99.90;;;;;;5014798;28;20107;-68
2023/12/03 03:47:00;;;;;;;108.88;19.73;;;0.90;99.90;;;;;;5025831;28;20157;-68
2023/12/03 03:49:26;;;;;;;116.30;22.02;;;0.90;99.90;;;;;;5033456;28;20532;-67
2023/12/03 03:51:51;;;;;;;51.42;14.88;;;0.80;99.90;;;;;;5034433;28;20088;-68
2023/12/03 03:54:17;;;;;;;53.90;15.77;;;0.80;99.90;;;;;;5027762;28;20087;-68
2023/12/03 03:56:49;;;;;;;117.68;23.55;;;0.90;99.90;;;;;;5046493;28;20025;-68
2023/12/03 03:59:15;;;;;;;58.38;16.17;;;0.90;99.90;;;;;;5049457;28;20040;-68
2023/12/03 04:01:44;;;;;;;98.03;20.55;;;0.90;99.90;;;;;;5042250;28;20445;-67
2023/12/03 04:04:11;;;;;;;69.95;17.52;;;0.90;99.90;;;;;;5029523;28;20479;-67
2023/12/03 04:06:41;;;;;;;154.80;29.55;;;0.90;99.90;;;;;;5036681;28;20049;-68
2023/12/03 04:09:07;;;;;;;167.18;30.10;;;0.90;99.90;;;;;;5041185;28;20098;-68
2023/12/03 04:11:43;;;;;;;77.10;20.60;;;0.90;99.90;;;;;;5027303;28;20049;-68
2023/12/03 04:14:11;;;;;;;72.90;18.38;;;0.90;99.90;;;;;;5036754;28;20469;-68
2023/12/03 04:16:37;;;;;;;117.10;23.55;;;0.90;99.90;;;;;;5036697;28;20053;-68
2023/12/03 04:19:03;;;;;;;109.95;22.33;;;0.90;99.90;;;;;;5043163;28;20029;-69
2023/12/03 04:21:29;;;;;;;106.97;23.23;;;0.90;99.90;;;;;;5021110;28;20346;-69
2023/12/03 04:23:56;;;;;;;174.02;29.23;;;0.90;99.90;;;;;;5033877;28;20052;-69
2023/12/03 04:26:22;;;;;;;167.80;28.05;;;0.90;99.90;;;;;;5045013;28;20367;-69
2023/12/03 04:28:48;;;;;;;161.70;28.52;;;0.90;99.90;;;;;;5040151;28;20064;-69
2023/12/03 04:31:19;;;;;;;81.75;20.98;;;0.90;99.90;;;;;;5037097;28;20045;-69
2023/12/03 04:33:45;;;;;;;214.35;33.03;;;0.90;99.90;;;;;;5019646;28;20048;-69
2023/12/03 04:36:12;;;;;;;66.47;20.90;;;0.90;99.90;;;;;;5039549;28;20033;-69
2023/12/03 04:38:37;;;;;;;71.47;20.70;;;0.90;99.90;;;;;;5043136;28;20757;-69
2023/12/03 04:41:03;;;;;;;71.40;21.52;;;0.90;99.90;;;;;;5044489;28;20036;-70
2023/12/03 04:43:28;;;;;;;178.70;33.35;;;0.90;99.90;;;;;;5030059;28;20434;-70
2023/12/03 04:45:54;;;;;;;163.23;30.65;;;0.90;99.90;;;;;;5030911;28;20037;-70
2023/12/03 04:48:20;;;;;;;150.77;30.20;;;0.90;99.90;;;;;;5029001;28;20044;-70
2023/12/03 04:50:45;;;;;;;142.38;29.40;;;0.80;99.90;;;;;;5044895;28;20503;-69
2023/12/03 04:53:11;;;;;;;178.45;34.13;;;0.90;99.90;;;;;;5035075;28;20045;-70
2023/12/03 04:55:36;;;;;;;65.78;22.27;;;0.90;99.90;;;;;;5028596;28;20407;-69
2023/12/03 04:58:02;;;;;;;166.63;30.90;;;0.90;99.90;;;;;;5035314;28;20120;-69
2023/12/03 05:00:27;;;;;;;157.80;31.38;;;0.90;99.90;;;;;;5032248;28;20037;-69
2023/12/03 05:02:53;;;;;;;91.10;24.40;;;0.90;99.90;;;;;;5028255;28;20091;-70
2023/12/03 05:05:19;;;;;;;129.88;28.40;;;0.90;99.90;;;;;;5038632;28;20041;-70
2023/12/03 05:07:45;;;;;;;97.10;22.77;;;0.90;99.90;;;;;;5019350;28;20037;-70
2023/12/03 05:10:11;;;;;;;135.77;27.65;;;0.90;99.90;;;;;;5038928;28;20036;-71
2023/12/03 05:12:36;;;;;;;112.50;24.00;;;0.90;99.90;;;;;;5027182;28;20048;-70
2023/12/03 05:15:02;;;;;;;99.85;23.85;;;0.90;99.90;;;;;;5030707;28;20421;-71
2023/12/03 05:17:28;;;;;;;92.68;22.60;;;0.90;99.90;;;;;;5022390;28;20136;-71
2023/12/03 05:19:53;;;;;;;63.42;19.08;;;0.90;99.90;;;;;;5033860;28;20035;-71
2023/12/03 05:22:19;;;;;;;125.05;24.00;;;0.90;99.90;;;;;;5036879;28;20041;-71
2023/12/03 05:24:44;;;;;;;93.32;20.73;;;0.90;99.90;;;;;;5029524;28;20033;-70
2023/12/03 05:27:11;;;;;;;101.80;23.50;;;0.80;99.90;;;;;;5046612;28;20025;-70
2023/12/03 05:29:42;;;;;;;49.75;16.23;;;0.80;99.90;;;;;;5036043;28;20053;-70
2023/12/03 05:32:07;;;;;;;64.22;19.90;;;0.80;99.90;;;;;;5039003;28;20045;-70
2023/12/03 05:34:33;;;;;;;55.25;17.50;;;0.80;99.90;;;;;;5024190;28;20056;-70
2023/12/03 05:36:59;;;;;;;106.88;23.98;;;0.80;99.90;;;;;;5046233;28;20069;-69
2023/12/03 05:39:24;;;;;;;101.85;23.05;;;0.80;99.90;;;;;;5045140;28;20048;-70
2023/12/03 05:41:50;;;;;;;91.68;23.33;;;0.80;99.90;;;;;;5038247;28;20033;-70
2023/12/03 05:44:15;;;;;;;103.20;22.30;;;0.80;99.90;;;;;;5016144;28;20052;-70
2023/12/03 05:46:41;;;;;;;91.47;23.15;;;0.80;99.90;;;;;;5022975;28;20086;-70
2023/12/03 05:49:08;;;;;;;71.32;19.33;;;0.80;99.90;;;;;;5029394;28;20472;-70
2023/12/03 05:51:34;;;;;;;75.78;19.52;;;0.80;99.90;;;;;;5039741;28;20049;-70
2023/12/03 05:54:00;;;;;;;107.75;23.38;;;0.80;99.90;;;;;;5043075;28;20051;-71
2023/12/03 05:56:25;;;;;;;69.88;18.42;;;0.70;99.90;;;;;;5034472;28;20045;-70
2023/12/03 05:58:51;;;;;;;120.53;24.85;;;0.70;99.90;;;;;;5036117;28;20056;-70
2023/12/03 06:01:24;;;;;;;90.78;20.55;;;0.70;99.90;;;;;;5026183;28;20032;-71
2023/12/03 06:03:50;;;;;;;64.20;17.88;;;0.70;99.90;;;;;;5035833;28;20060;-70
2023/12/03 06:06:16;;;;;;;106.75;21.75;;;0.70;99.90;;;;;;5029990;28;20041;-71
2023/12/03 06:08:42;;;;;;;72.43;19.88;;;0.70;99.90;;;;;;5027383;28;20120;-70
2023/12/03 06:11:08;;;;;;;93.72;21.23;;;0.70;99.90;;;;;;5027527;28;20210;-71
2023/12/03 06:13:33;;;;;;;81.03;19.55;;;0.70;99.90;;;;;;5028378;28;20041;-72
2023/12/03 06:15:59;;;;;;;63.17;19.33;;;0.70;99.90;;;;;;5043475;28;20033;-70
2023/12/03 06:18:25;;;;;;;98.55;22.48;;;0.70;99.90;;;;;;5036236;28;20041;-71
2023/12/03 06:20:51;;;;;;;59.30;18.33;;;0.80;99.90;;;;;;5040158;28;20114;-70
2023/12/03 06:23:17;;;;;;;64.53;17.65;;;0.80;99.90;;;;;;5036866;28;20048;-70
2023/12/03 06:25:43;;;;;;;66.75;17.85;;;0.80;99.90;;;;;;5034436;28;20391;-72
2023/12/03 06:28:09;;;;;;;82.03;18.15;;;0.70;99.90;;;;;;5043891;28;20040;-71
2023/12/03 06:30:36;;;;;;;56.83;16.23;;;0.70;99.90;;;;;;5037592;28;20065;-70
2023/12/03 06:33:01;;;;;;;64.60;17.98;;;0.80;99.90;;;;;;5036129;28;20041;-71
2023/12/03 06:35:27;;;;;;;92.60;20.45;;;0.80;99.90;;;;;;5021573;28;20079;-71
2023/12/03 06:37:53;;;;;;;59.67;16.23;;;0.70;99.90;;;;;;5040623;28;20041;-71
2023/12/03 06:40:18;;;;;;;64.93;15.32;;;0.70;99.90;;;;;;5041200;28;20139;-71
2023/12/03 06:42:44;;;;;;;93.95;18.90;;;0.70;99.90;;;;;;5044136;28;20052;-71
2023/12/03 06:45:12;;;;;;;75.15;17.50;;;0.80;99.90;;;;;;5045305;28;20040;-70
2023/12/03 06:47:37;;;;;;;77.82;19.25;;;0.80;99.90;;;;;;5045928;28;20041;-70
2023/12/03 06:50:04;;;;;;;63.53;16.33;;;0.90;99.90;;;;;;5042850;28;20037;-71
2023/12/03 06:52:29;;;;;;;66.32;17.05;;;0.80;99.90;;;;;;5022630;28;20036;-70
2023/12/03 06:54:55;;;;;;;79.15;19.20;;;0.90;99.90;;;;;;5027746;28;20051;-70
2023/12/03 06:57:20;;;;;;;75.03;17.85;;;0.90;99.90;;;;;;5018190;28;20088;-70
2023/12/03 06:59:46;;;;;;;84.07;19.02;;;0.90;99.90;;;;;;5026782;28;20134;-71
2023/12/03 07:02:11;;;;;;;94.47;20.00;;;0.90;99.90;;;;;;5023050;28;20032;-71
2023/12/03 07:04:37;;;;;;;79.93;18.08;;;0.90;99.90;;;;;;5043879;28;20250;-70
2023/12/03 07:07:04;;;;;;;72.35;18.95;;;0.90;99.90;;;;;;5045439;28;20045;-70
2023/12/03 07:09:30;;;;;;;81.40;19.55;;;0.90;99.90;;;;;;5040683;28;20064;-69
2023/12/03 07:11:55;;;;;;;102.13;20.33;;;0.90;99.90;;;;;;5034008;28;20123;-71
2023/12/03 07:14:21;;;;;;;83.22;17.67;;;0.90;99.90;;;;;;5026939;28;20040;-70
2023/12/03 07:16:47;;;;;;;90.10;20.10;;;1.00;99.90;;;;;;5023497;28;20045;-70
2023/12/03 07:19:12;;;;;;;68.25;18.80;;;1.00;99.90;;;;;;5043249;28;20358;-70
2023/12/03 07:21:38;;;;;;;92.40;20.88;;;1.10;99.90;;;;;;5046940;28;20124;-70
2023/12/03 07:24:04;;;;;;;115.22;24.23;;;1.00;99.90;;;;;;5034500;28;20045;-71
2023/12/03 07:26:29;;;;;;;83.30;20.02;;;1.00;99.90;;;;;;5022160;28;20068;-71
2023/12/03 07:28:56;;;;;;;81.00;20.58;;;1.10;99.90;;;;;;5015452;28;20461;-73
2023/12/03 07:31:22;;;;;;;83.03;19.85;;;1.10;99.90;;;;;;5026134;28;20092;-70
2023/12/03 07:33:47;;;;;;;73.50;18.52;;;1.10;99.90;;;;;;5035168;28;20040;-70
2023/12/03 07:36:13;;;;;;;75.70;17.83;;;1.10;99.90;;;;;;5041982;28;20519;-70
2023/12/03 07:38:39;;;;;;;92.72;19.35;;;1.10;99.90;;;;;;5031036;28;20507;-73
2023/12/03 07:41:14;;;;;;;74.60;18.40;;;1.10;99.90;;;;;;5025839;28;20033;-71
2023/12/03 07:43:39;;;;;;;77.43;19.25;;;1.10;99.90;;;;;;5031606;28;20124;-70
2023/12/03 07:46:06;;;;;;;90.35;19.73;;;1.10;99.90;;;;;;5034514;28;20128;-70
2023/12/03 07:48:31;;;;;;;77.65;18.40;;;1.10;99.90;;;;;;5011534;28;20068;-71
2023/12/03 07:50:57;;;;;;;71.85;21.48;;;1.10;99.90;;;;;;5025124;28;20049;-71
2023/12/03 07:53:22;;;;;;;63.58;17.48;;;1.20;99.90;;;;;;5033484;28;20036;-71
2023/12/03 07:55:49;;;;;;;86.57;25.50;;;1.20;99.90;;;;;;5039893;28;20480;-71
2023/12/03 07:58:15;;;;;;;65.55;17.30;;;1.10;99.90;;;;;;5031040;28;20037;-70
2023/12/03 08:00:41;;;;;;;75.32;22.15;;;1.20;99.90;;;;;;5031417;28;20453;-71
2023/12/03 08:03:06;;;;;;;81.55;20.92;;;1.20;99.90;;;;;;5028906;28;20041;-71
2023/12/03 08:05:32;;;;;;;79.93;18.55;;;1.20;99.90;;;;;;5017822;28;20076;-71
2023/12/03 08:07:58;;;;;;;63.28;18.90;;;1.20;99.90;;;;;;5015185;28;20430;-71
2023/12/03 08:10:24;;;;;;;67.25;17.33;;;1.20;99.90;;;;;;5058587;28;20080;-69
2023/12/03 08:12:49;;;;;;;63.95;18.55;;;1.20;99.90;;;;;;5030393;28;20049;-69
2023/12/03 08:15:15;;;;;;;69.65;19.17;;;1.20;99.90;;;;;;5032391;28;20049;-72
2023/12/03 08:17:41;;;;;;;62.22;19.35;;;1.20;99.90;;;;;;5029874;28;20117;-71
2023/12/03 08:20:07;;;;;;;67.05;19.30;;;1.20;99.90;;;;;;5039458;28;20048;-71
2023/12/03 08:22:33;;;;;;;60.95;18.75;;;1.20;99.90;;;;;;5031925;28;20042;-71
2023/12/03 08:24:58;;;;;;;63.53;17.10;;;1.20;99.90;;;;;;5030967;28;20072;-72
2023/12/03 08:27:24;;;;;;;55.30;15.68;;;1.20;99.90;;;;;;5012946;28;20096;-71
2023/12/03 08:29:49;;;;;;;57.53;14.98;;;1.30;99.90;;;;;;5048792;28;20057;-71
2023/12/03 08:32:15;;;;;;;53.05;14.65;;;1.20;99.90;;;;;;5029443;28;20044;-70
2023/12/03 08:34:41;;;;;;;59.45;15.18;;;1.30;99.90;;;;;;5028444;28;20065;-71
2023/12/03 08:37:06;;;;;;;56.70;14.40;;;1.30;99.90;;;;;;5040392;28;20597;-69
2023/12/03 08:39:32;;;;;;;55.72;15.35;;;1.30;99.90;;;;;;5049146;28;20051;-70
2023/12/03 08:41:58;;;;;;;49.58;15.02;;;1.30;99.90;;;;;;5050043;28;20470;-70
2023/12/03 08:44:25;;;;;;;53.85;13.93;;;1.30;99.90;;;;;;5050273;28;20033;-70
2023/12/03 08:46:51;;;;;;;65.43;15.45;;;1.30;99.90;;;;;;5050409;28;20186;-71
2023/12/03 08:49:17;;;;;;;55.30;15.35;;;1.30;99.90;;;;;;5031686;28;20207;-70
2023/12/03 08:51:42;;;;;;;60.50;16.98;;;1.30;99.90;;;;;;5013377;28;20143;-70
2023/12/03 08:54:08;;;;;;;61.67;16.05;;;1.40;99.90;;;;;;5029094;28;20049;-70
2023/12/03 08:56:33;;;;;;;54.05;15.88;;;1.40;99.90;;;;;;5030074;28;20064;-70
2023/12/03 08:59:00;;;;;;;61.42;17.17;;;1.40;99.90;;;;;;5041075;28;20033;-69
2023/12/03 09:01:25;;;;;;;57.05;16.80;;;1.40;99.90;;;;;;5050099;28;20055;-70
2023/12/03 09:03:51;;;;;;;58.83;15.55;;;1.40;99.90;;;;;;5048200;28;20033;-74
2023/12/03 09:06:17;;;;;;;52.05;15.07;;;1.50;99.90;;;;;;5049288;28;20480;-70
2023/12/03 09:08:43;;;;;;;47.95;15.05;;;1.40;99.90;;;;;;5040506;28;20053;-70
2023/12/03 09:11:08;;;;;;;60.60;15.18;;;1.50;99.90;;;;;;5023334;28;20047;-70
2023/12/03 09:13:34;;;;;;;52.25;15.32;;;1.50;99.90;;;;;;5049065;28;20049;-70
2023/12/03 09:16:00;;;;;;;54.78;14.40;;;1.50;99.90;;;;;;5014027;28;20121;-70
2023/12/03 09:18:25;;;;;;;54.90;15.80;;;1.50;99.90;;;;;;5032599;28;20052;-70
2023/12/03 09:20:51;;;;;;;50.58;16.00;;;1.60;99.90;;;;;;5013326;28;20195;-70
2023/12/03 09:23:17;;;;;;;51.60;15.93;;;1.60;99.90;;;;;;5032641;28;20041;-70
2023/12/03 09:25:43;;;;;;;50.75;16.67;;;1.60;99.90;;;;;;5048563;28;20756;-70
2023/12/03 09:28:10;;;;;;;51.55;16.88;;;1.60;99.90;;;;;;5033452;28;20109;-70
2023/12/03 09:30:36;;;;;;;55.75;16.13;;;1.60;99.90;;;;;;5031504;28;20107;-70
2023/12/03 09:33:01;;;;;;;50.22;15.63;;;1.60;99.90;;;;;;5029938;28;20388;-70
2023/12/03 09:35:30;;;;;;;61.65;16.05;;;1.70;99.90;;;;;;5023662;28;20075;-71
2023/12/03 09:37:57;;;;;;;52.85;15.48;;;1.70;99.90;;;;;;5029878;28;20057;-70
2023/12/03 09:40:23;;;;;;;53.17;16.02;;;1.70;99.90;;;;;;5034467;28;20523;-70
2023/12/03 09:42:51;;;;;;;54.13;17.05;;;1.80;99.90;;;;;;5043638;28;20374;-72
2023/12/03 09:45:19;;;;;;;55.35;17.30;;;1.80;99.90;;;;;;5029838;28;20040;-71
2023/12/03 09:47:52;;;;;;;58.90;18.25;;;1.80;99.90;;;;;;5029877;28;20535;-71
2023/12/03 09:50:19;;;;;;;52.70;17.58;;;1.80;99.90;;;;;;5031189;28;20049;-70
2023/12/03 09:52:51;;;;;;;56.28;19.70;;;1.80;99.90;;;;;;5042851;28;20079;-69
2023/12/03 09:55:20;;;;;;;58.60;20.05;;;1.70;99.90;;;;;;5039308;28;20047;-71
2023/12/03 09:57:47;;;;;;;58.95;18.60;;;1.80;99.90;;;;;;5043829;28;20167;-71
2023/12/03 10:00:14;;;;;;;59.78;19.33;;;1.80;99.90;;;;;;5045739;28;20037;-70
2023/12/03 10:02:40;;;;;;;61.25;18.17;;;1.70;99.90;;;;;;5031352;28;20041;-71
2023/12/03 10:05:06;;;;;;;51.55;18.45;;;1.80;99.90;;;;;;5029092;28;20029;-70
2023/12/03 10:07:31;;;;;;;58.60;18.42;;;1.80;99.90;;;;;;5019418;28;20462;-70
2023/12/03 10:09:58;;;;;;;53.55;17.90;;;1.80;99.90;;;;;;5030392;28;20071;-70
2023/12/03 10:12:41;;;;;;;54.60;18.10;;;1.90;99.90;;;;;;5023999;28;20033;-68
2023/12/03 10:15:08;;;;;;;53.80;19.27;;;1.80;99.90;;;;;;5044503;28;20086;-71
2023/12/03 10:17:34;;;;;;;60.65;19.92;;;1.80;99.90;;;;;;5033676;28;20370;-70
2023/12/03 10:20:21;;;;;;;59.33;21.70;;;1.80;99.90;;;;;;5041055;28;20048;-70
2023/12/03 10:22:47;;;;;;;52.80;19.25;;;1.80;99.90;;;;;;5038887;28;20048;-70
2023/12/03 10:25:33;;;;;;;58.72;21.20;;;1.80;99.90;;;;;;5011462;28;20481;-71
2023/12/03 10:28:04;;;;;;;54.15;19.88;;;1.80;99.90;;;;;;5030871;28;20038;-70
2023/12/03 10:30:31;;;;;;;55.95;20.58;;;1.80;99.90;;;;;;5041646;28;20119;-69
2023/12/03 10:32:57;;;;;;;51.20;20.02;;;1.80;99.90;;;;;;5039198;28;20831;-72
2023/12/03 10:35:24;;;;;;;53.20;20.42;;;1.70;99.90;;;;;;5047138;28;20071;-70
2023/12/03 10:37:50;;;;;;;52.00;21.00;;;1.70;99.90;;;;;;5032661;28;20477;-69
2023/12/03 10:40:17;;;;;;;54.92;19.92;;;1.70;99.90;;;;;;5047003;28;20033;-70
2023/12/03 10:42:44;;;;;;;52.95;20.83;;;1.80;99.90;;;;;;5044360;28;20056;-70
2023/12/03 10:45:10;;;;;;;54.58;20.92;;;1.80;99.90;;;;;;5012571;28;20046;-71
2023/12/03 10:47:37;;;;;;;53.72;20.92;;;1.90;99.90;;;;;;5039110;28;20025;-72
2023/12/03 10:50:07;;;;;;;57.13;20.60;;;1.90;99.90;;;;;;5031060;28;20041;-72
2023/12/03 10:52:35;;;;;;;52.50;21.45;;;1.90;99.90;;;;;;5035635;28;20072;-71
2023/12/03 10:55:01;;;;;;;52.35;20.55;;;2.00;99.90;;;;;;5015904;28;20053;-72
2023/12/03 10:57:30;;;;;;;57.55;23.65;;;2.00;99.90;;;;;;5038794;28;20045;-71
2023/12/03 11:00:10;;;;;;;62.25;23.00;;;2.10;99.90;;;;;;5038358;28;20048;-72
2023/12/03 11:02:59;;;;;;;53.75;22.05;;;2.20;99.90;;;;;;5049212;28;20051;-71
2023/12/03 11:05:32;;;;;;;53.30;21.80;;;2.20;99.90;;;;;;5036796;28;20061;-71
2023/12/03 11:08:01;;;;;;;56.63;21.13;;;2.20;99.90;;;;;;5052217;28;20127;-70
2023/12/03 11:10:27;;;;;;;54.72;20.52;;;2.20;99.90;;;;;;5022858;28;20041;-71
2023/12/03 11:12:54;;;;;;;57.40;23.10;;;2.20;99.90;;;;;;5032978;28;20756;-71
2023/12/03 11:15:21;;;;;;;50.60;21.55;;;2.30;99.90;;;;;;5022875;28;20104;-71
2023/12/03 11:17:49;;;;;;;52.00;22.95;;;2.30;99.90;;;;;;5031371;28;20472;-70
2023/12/03 11:20:23;;;;;;;44.97;20.23;;;2.40;99.90;;;;;;5042371;28;20479;-69
2023/12/03 11:23:23;;;;;;;44.80;20.98;;;2.30;99.90;;;;;;5031942;28;20045;-70
2023/12/03 11:26:04;;;;;;;48.30;19.48;;;2.40;99.90;;;;;;5030944;28;20045;-70
2023/12/03 11:28:31;;;;;;;45.75;20.08;;;2.40;99.90;;;;;;5031803;28;20132;-70
2023/12/03 11:30:57;;;;;;;41.58;19.23;;;2.40;99.90;;;;;;5046396;28;20532;-70
2023/12/03 11:33:26;;;;;;;41.10;19.23;;;2.40;99.90;;;;;;5030040;28;20128;-69
2023/12/03 11:35:52;;;;;;;43.40;21.40;;;2.40;99.90;;;;;;5036165;28;20051;-68
2023/12/03 11:38:21;;;;;;;41.67;18.85;;;2.40;99.90;;;;;;5040566;28;20160;-70
2023/12/03 11:40:48;;;;;;;41.13;18.60;;;2.40;99.90;;;;;;5030508;28;20091;-70
2023/12/03 11:43:24;;;;;;;42.20;18.92;;;2.30;99.90;;;;;;5031652;28;20079;-69
2023/12/03 11:45:51;;;;;;;41.33;18.33;;;2.30;99.90;;;;;;5033040;28;20049;-69
2023/12/03 11:48:17;;;;;;;40.45;19.02;;;2.20;99.90;;;;;;5048005;28;20056;-70
2023/12/03 11:50:45;;;;;;;38.40;18.95;;;2.20;99.90;;;;;;5028893;28;20091;-72
2023/12/03 11:53:14;;;;;;;42.28;19.85;;;2.10;99.90;;;;;;5042282;28;20121;-73
2023/12/03 11:55:41;;;;;;;46.35;19.50;;;2.20;99.90;;;;;;5035559;28;20041;-69
2023/12/03 11:58:08;;;;;;;41.97;18.42;;;2.20;99.90;;;;;;5032008;28;20349;-68
2023/12/03 12:00:35;;;;;;;42.20;18.02;;;2.20;99.90;;;;;;5049026;28;20044;-69
2023/12/03 12:03:03;;;;;;;42.03;18.42;;;2.10;99.90;;;;;;5041198;28;20073;-69
2023/12/03 12:05:29;;;;;;;41.47;18.88;;;2.10;99.90;;;;;;5045618;28;20148;-70
2023/12/03 12:08:00;;;;;;;37.75;17.75;;;2.00;99.90;;;;;;5045436;28;20040;-73
2023/12/03 12:10:27;;;;;;;38.13;15.73;;;1.80;99.90;;;;;;5049965;28;20044;-69
2023/12/03 12:12:54;;;;;;;37.85;16.88;;;1.80;99.90;;;;;;5048498;28;20033;-70
2023/12/03 12:15:21;;;;;;;39.83;17.30;;;1.80;99.90;;;;;;5028255;28;20051;-70
2023/12/03 12:17:46;;;;;;;37.58;16.92;;;1.80;99.90;;;;;;5042769;28;20103;-69
2023/12/03 12:20:20;;;;;;;38.88;17.33;;;1.90;99.90;;;;;;5048946;28;20055;-70
2023/12/03 12:22:46;;;;;;;40.38;16.95;;;1.80;99.90;;;;;;5050439;28;20064;-71
2023/12/03 12:25:12;;;;;;;42.30;18.25;;;1.80;99.90;;;;;;5038796;28;20068;-70
2023/12/03 12:27:37;;;;;;;47.67;19.05;;;1.70;99.90;;;;;;5041032;28;20064;-70
2023/12/03 12:30:04;;;;;;;46.95;19.00;;;1.80;99.90;;;;;;5034236;28;20049;-68
2023/12/03 12:32:29;;;;;;;54.17;20.42;;;1.70;99.90;;;;;;5030427;28;20038;-69